createdAt,value
2022-11-01T05:12:58.899Z,69.72
2022-11-01T05:15:32.001Z,68.74
2022-11-01T05:18:04.994Z,69.93
2022-11-01T05:20:37.691Z,68.06
2022-11-01T05:23:10.682Z,67.60
2022-11-01T05:25:43.140Z,67.29
2022-11-01T05:28:18.153Z,68.18
2022-11-01T05:30:53.005Z,68.27
2022-11-01T05:33:31.127Z,68.59
2022-11-01T05:36:05.308Z,67.51
2022-11-01T05:38:41.654Z,68.41
2022-11-01T05:43:47.540Z,67.89
2022-11-01T05:46:20.407Z,69.50
2022-11-01T05:48:52.573Z,67.22
2022-11-01T05:51:25.120Z,66.10
2022-11-01T05:53:57.885Z,66.87
2022-11-01T05:56:30.569Z,66.38
2022-11-01T05:59:05.431Z,65.86
2022-11-01T06:01:38.149Z,64.86
2022-11-01T06:04:12.161Z,65.25
2022-11-01T06:06:45.186Z,65.93
2022-11-01T06:09:18.490Z,65.13
2022-11-01T06:11:51.055Z,65.79
2022-11-01T06:14:24.914Z,65.76
2022-11-01T06:16:57.373Z,66.62
2022-11-01T06:19:30.271Z,64.65
2022-11-01T06:22:03.107Z,65.19
2022-11-01T06:24:36.232Z,65.48
2022-11-01T06:27:11.624Z,64.20
2022-11-01T06:29:46.829Z,64.44
2022-11-01T06:32:18.750Z,63.62
2022-11-01T06:34:51.239Z,62.66
2022-11-01T06:37:23.763Z,61.56
2022-11-01T06:39:56.290Z,62.41
2022-11-01T06:42:28.682Z,61.87
2022-11-01T06:45:03.260Z,61.13
2022-11-01T06:47:35.645Z,61.28
2022-11-01T06:50:09.339Z,60.94
2022-11-01T06:52:41.469Z,60.54
2022-11-01T06:55:14.488Z,60.91
2022-11-01T06:57:47.154Z,60.63
2022-11-01T07:00:21.744Z,59.34
2022-11-01T07:03:02.855Z,58.46
2022-11-01T07:05:37.834Z,58.50
2022-11-01T07:08:13.100Z,58.64
2022-11-01T07:10:47.892Z,58.91
2022-11-01T07:13:20.594Z,57.76
2022-11-01T07:15:54.364Z,56.92
2022-11-01T07:18:27.347Z,56.84
2022-11-01T07:21:00.626Z,57.95
2022-11-01T07:23:33.260Z,58.12
2022-11-01T07:26:05.978Z,57.47
2022-11-01T07:28:39.311Z,55.27
2022-11-01T07:31:13.677Z,55.46
2022-11-01T07:33:45.874Z,54.07
2022-11-01T07:36:18.517Z,54.85
2022-11-01T07:38:51.090Z,54.69
2022-11-01T07:41:23.501Z,54.30
2022-11-01T07:43:57.015Z,52.77
2022-11-01T07:46:32.114Z,53.42
2022-11-01T07:49:04.966Z,53.11
2022-11-01T07:51:37.599Z,52.75
2022-11-01T07:54:10.578Z,54.05
2022-11-01T07:56:43.271Z,53.90
2022-11-01T07:59:15.989Z,54.01
2022-11-01T08:01:49.965Z,52.95
2022-11-01T08:04:22.820Z,53.02
2022-11-01T08:06:56.273Z,53.27
2022-11-01T08:09:29.006Z,51.32
2022-11-01T08:12:01.278Z,52.81
2022-11-01T08:14:33.716Z,53.30
2022-11-01T08:17:07.813Z,53.10
2022-11-01T08:19:40.908Z,52.47
2022-11-01T08:22:13.088Z,51.91
2022-11-01T08:24:45.746Z,52.62
2022-11-01T08:27:18.606Z,51.22
2022-11-01T08:29:50.879Z,53.16
2022-11-01T08:32:26.328Z,53.49
2022-11-01T08:34:58.413Z,51.94
2022-11-01T08:37:31.322Z,51.69
2022-11-01T08:40:03.637Z,51.58
2022-11-01T08:42:35.768Z,51.69
2022-11-01T08:45:09.017Z,51.39
2022-11-01T08:47:42.821Z,50.91
2022-11-01T08:50:17.024Z,50.02
2022-11-01T08:52:49.209Z,50.54
2022-11-01T08:55:21.710Z,50.00
2022-11-01T08:57:54.593Z,50.17
2022-11-01T09:00:27.015Z,49.23
2022-11-01T09:03:03.980Z,48.31
2022-11-01T09:05:37.082Z,49.28
2022-11-01T09:08:10.114Z,49.09
2022-11-01T09:10:45.711Z,49.29
2022-11-01T09:13:19.167Z,48.03
2022-11-01T09:15:51.680Z,47.53
2022-11-01T09:18:25.946Z,47.21
2022-11-01T09:20:58.676Z,46.53
2022-11-01T09:23:31.757Z,46.91
2022-11-01T09:26:07.282Z,46.09
2022-11-01T09:28:41.008Z,46.34
2022-11-01T09:31:20.813Z,45.98
2022-11-01T09:33:59.192Z,44.99
2022-11-01T09:36:32.579Z,46.27
2022-11-01T09:39:05.029Z,46.40
2022-11-01T09:41:44.230Z,45.59
2022-11-01T09:44:21.169Z,44.15
2022-11-01T09:47:01.331Z,44.21
2022-11-01T09:49:39.956Z,45.68
2022-11-01T09:52:19.630Z,45.62
2022-11-01T09:54:52.122Z,43.90
2022-11-01T09:57:31.284Z,45.60
2022-11-01T10:00:09.487Z,44.81
2022-11-01T10:03:05.948Z,48.45
2022-11-01T10:05:58.146Z,47.93
2022-11-01T10:08:44.950Z,43.55
2022-11-01T10:11:36.864Z,46.46
2022-11-01T10:14:16.741Z,45.11
2022-11-01T10:16:56.309Z,49.65
2022-11-01T10:19:32.112Z,47.40
2022-11-01T10:22:13.224Z,49.06
2022-11-01T10:24:51.698Z,51.46
2022-11-01T10:27:34.611Z,52.27
2022-11-01T10:30:16.055Z,52.57
2022-11-01T10:32:54.246Z,52.57
2022-11-01T10:35:31.460Z,52.98
2022-11-01T10:38:25.000Z,51.56
2022-11-01T10:41:09.866Z,51.37
2022-11-01T10:43:47.015Z,54.03
2022-11-01T10:46:23.066Z,55.87
2022-11-01T10:48:59.053Z,56.08
2022-11-01T10:51:35.118Z,56.42
2022-11-01T10:54:17.751Z,56.62
2022-11-01T10:56:54.400Z,57.21
2022-11-01T10:59:32.508Z,57.63
2022-11-01T11:02:07.560Z,57.55
2022-11-01T11:04:41.056Z,57.80
2022-11-01T11:07:19.941Z,57.90
2022-11-01T11:09:57.930Z,58.45
2022-11-01T11:12:32.315Z,59.16
2022-11-01T11:15:09.590Z,58.94
2022-11-01T11:17:46.488Z,58.32
2022-11-01T11:20:25.416Z,62.16
2022-11-01T11:22:57.965Z,62.97
2022-11-01T11:25:39.736Z,63.47
2022-11-01T11:28:27.318Z,64.24
2022-11-01T11:30:59.658Z,64.39
2022-11-01T11:33:33.089Z,64.58
2022-11-01T11:36:06.765Z,65.34
2022-11-01T11:38:47.402Z,65.69
2022-11-01T11:41:33.289Z,66.06
2022-11-01T11:44:05.474Z,66.02
2022-11-01T11:46:38.273Z,66.81
2022-11-01T11:49:30.643Z,67.08
2022-11-01T11:52:04.056Z,67.77
2022-11-01T11:54:39.779Z,67.93
2022-11-01T11:57:18.955Z,68.54
2022-11-01T11:59:56.928Z,68.66
2022-11-01T12:02:33.330Z,69.13
2022-11-01T12:05:10.958Z,69.14
2022-11-01T12:07:51.281Z,69.55
2022-11-01T12:10:36.509Z,70.19
2022-11-01T12:13:29.676Z,70.55
2022-11-01T12:19:01.373Z,70.08
2022-11-01T12:21:38.225Z,70.39
2022-11-01T12:24:20.538Z,70.52
2022-11-01T12:26:55.454Z,70.54
2022-11-01T12:29:35.502Z,70.18
2022-11-01T12:32:14.651Z,70.33
2022-11-01T12:34:49.765Z,70.33
2022-11-01T12:37:25.874Z,69.99
2022-11-01T12:40:04.196Z,70.08
2022-11-01T12:42:43.987Z,70.42
2022-11-01T12:45:26.176Z,69.50
2022-11-01T12:48:03.561Z,69.61
2022-11-01T12:50:47.380Z,70.04
2022-11-01T12:53:24.133Z,70.53
2022-11-01T12:55:56.777Z,70.71
2022-11-01T12:58:33.735Z,71.30
2022-11-01T13:01:25.968Z,72.55
2022-11-01T13:04:10.180Z,71.34
2022-11-01T13:07:24.855Z,71.56
2022-11-01T13:10:06.918Z,71.89
2022-11-01T13:12:49.770Z,71.72
2022-11-01T13:15:28.385Z,71.60
2022-11-01T13:18:13.171Z,71.72
2022-11-01T13:20:57.385Z,72.38
2022-11-01T13:23:36.951Z,72.40
2022-11-01T13:26:18.572Z,72.01
2022-11-01T13:29:06.067Z,71.99
2022-11-01T13:31:50.211Z,72.59
2022-11-01T13:34:40.824Z,72.53
2022-11-01T13:37:24.103Z,72.76
2022-11-01T13:40:11.460Z,72.58
2022-11-01T13:42:49.356Z,71.90
2022-11-01T13:45:46.449Z,71.90
2022-11-01T13:48:29.742Z,72.44
2022-11-01T13:51:29.142Z,72.54
2022-11-01T13:54:08.079Z,72.47
2022-11-01T13:56:46.336Z,72.20
2022-11-01T13:59:33.180Z,73.01
2022-11-01T14:02:40.950Z,72.88
2022-11-01T14:05:14.518Z,72.48
2022-11-01T14:08:15.449Z,73.13
2022-11-01T14:10:54.577Z,72.82
2022-11-01T14:13:42.674Z,72.95
2022-11-01T14:16:25.236Z,72.37
2022-11-01T14:19:22.907Z,72.80
2022-11-01T14:21:57.259Z,73.09
2022-11-01T14:24:35.692Z,73.88
2022-11-01T14:27:24.701Z,73.53
2022-11-01T14:29:57.599Z,73.33
2022-11-01T14:32:33.124Z,73.95
2022-11-01T14:35:24.696Z,73.58
2022-11-01T14:37:59.972Z,74.52
2022-11-01T14:40:37.852Z,74.08
2022-11-01T14:43:18.240Z,74.22
2022-11-01T14:45:56.307Z,75.21
2022-11-01T14:48:35.201Z,74.75
2022-11-01T14:51:12.787Z,74.39
2022-11-01T14:53:47.221Z,74.99
2022-11-01T14:56:24.365Z,75.78
2022-11-01T14:59:16.287Z,76.54
2022-11-01T15:01:51.728Z,76.30
2022-11-01T15:04:26.055Z,76.63
2022-11-01T15:07:00.624Z,77.01
2022-11-01T15:09:35.362Z,78.04
2022-11-01T15:12:13.147Z,78.32
2022-11-01T15:14:48.628Z,78.70
2022-11-01T15:17:26.241Z,78.67
2022-11-01T15:20:00.082Z,78.98
2022-11-01T15:22:34.967Z,79.11
2022-11-01T15:25:09.217Z,78.82
2022-11-01T15:27:45.711Z,79.05
2022-11-01T15:30:24.759Z,78.43
2022-11-01T15:33:16.174Z,79.27
2022-11-01T15:35:57.726Z,79.03
2022-11-01T15:38:31.160Z,79.25
2022-11-01T15:41:22.085Z,79.52
2022-11-01T15:44:01.190Z,79.39
2022-11-01T15:46:36.828Z,77.97
2022-11-01T15:49:12.874Z,78.87
2022-11-01T15:51:51.089Z,78.73
2022-11-01T15:54:37.472Z,79.02
2022-11-01T15:57:19.701Z,78.90
2022-11-01T16:00:01.702Z,79.51
2022-11-01T16:02:49.395Z,80.37
2022-11-01T16:05:25.342Z,79.61
2022-11-01T16:07:58.901Z,80.00
2022-11-01T16:10:32.873Z,80.25
2022-11-01T16:13:08.869Z,80.48
2022-11-01T16:15:42.933Z,80.01
2022-11-01T16:18:20.463Z,80.44
2022-11-01T16:20:54.079Z,80.87
2022-11-01T16:23:31.148Z,81.33
2022-11-01T16:26:09.172Z,81.44
2022-11-01T16:28:44.785Z,81.77
2022-11-01T16:31:27.486Z,80.94
2022-11-01T16:34:01.115Z,81.23
2022-11-01T16:36:43.045Z,81.69
2022-11-01T16:39:31.355Z,80.88
2022-11-01T16:42:04.347Z,80.42
2022-11-01T16:44:36.702Z,80.81
2022-11-01T16:47:10.732Z,81.13
2022-11-01T16:49:49.875Z,81.60
2022-11-01T16:52:23.580Z,81.43
2022-11-01T16:54:56.527Z,82.02
2022-11-01T16:57:30.551Z,82.06
2022-11-01T17:00:03.117Z,82.38
2022-11-01T17:02:37.783Z,82.94
2022-11-01T17:05:22.698Z,83.04
2022-11-01T17:07:55.339Z,82.42
2022-11-01T17:10:29.103Z,82.53
2022-11-01T17:13:05.088Z,83.51
2022-11-01T17:15:42.193Z,83.31
2022-11-01T17:18:22.063Z,83.56
2022-11-01T17:20:57.955Z,83.48
2022-11-01T17:23:31.431Z,82.97
2022-11-01T17:26:05.024Z,83.25
2022-11-01T17:28:37.975Z,83.11
2022-11-01T17:31:10.402Z,82.88
2022-11-01T17:33:44.483Z,82.92
2022-11-01T17:36:19.448Z,83.44
2022-11-01T17:38:51.910Z,82.99
2022-11-01T17:41:23.950Z,82.89
2022-11-01T17:43:57.011Z,82.46
2022-11-01T17:46:30.081Z,82.10
2022-11-01T17:49:04.499Z,81.08
2022-11-01T17:51:36.914Z,80.62
2022-11-01T17:54:09.364Z,80.85
2022-11-01T17:56:41.290Z,80.32
2022-11-01T17:59:13.708Z,80.95
2022-11-01T18:01:46.611Z,80.74
2022-11-01T18:04:21.036Z,80.69
2022-11-01T18:06:53.735Z,80.49
2022-11-01T18:09:27.819Z,80.11
2022-11-01T18:12:08.721Z,80.58
2022-11-01T18:14:55.190Z,80.79
2022-11-01T18:17:53.893Z,80.28
2022-11-01T18:20:42.295Z,80.59
2022-11-01T18:23:17.483Z,79.67
2022-11-01T18:25:52.204Z,80.10
2022-11-01T18:28:27.900Z,79.34
2022-11-01T18:31:01.778Z,79.40
2022-11-01T18:33:40.940Z,79.88
2022-11-01T18:36:20.588Z,79.57
2022-11-01T18:39:02.916Z,79.93
2022-11-01T18:41:34.999Z,80.26
2022-11-01T18:44:14.373Z,80.13
2022-11-01T18:46:54.977Z,80.62
2022-11-01T18:49:30.280Z,80.88
2022-11-01T18:52:04.165Z,81.22
2022-11-01T18:54:37.067Z,81.26
2022-11-01T18:57:15.905Z,80.71
2022-11-01T18:59:51.546Z,81.71
2022-11-01T19:02:28.538Z,81.08
2022-11-01T19:05:14.799Z,81.29
2022-11-01T19:08:11.118Z,81.60
2022-11-01T19:10:44.751Z,82.00
2022-11-01T19:13:24.037Z,82.17
2022-11-01T19:15:59.644Z,81.42
2022-11-01T19:18:33.850Z,80.81
2022-11-01T19:21:06.878Z,80.60
2022-11-01T19:23:42.182Z,80.13
2022-11-01T19:26:23.759Z,80.28
2022-11-01T19:28:56.674Z,80.79
2022-11-01T19:31:32.727Z,80.62
2022-11-01T19:34:08.890Z,81.41
2022-11-01T19:36:43.692Z,81.36
2022-11-01T19:39:25.786Z,81.31
2022-11-01T19:42:02.376Z,81.41
2022-11-01T19:44:35.288Z,81.16
2022-11-01T19:47:33.300Z,81.33
2022-11-01T19:50:05.689Z,81.21
2022-11-01T19:52:44.580Z,81.16
2022-11-01T19:55:48.317Z,81.24
2022-11-01T19:58:29.348Z,81.07
2022-11-01T20:01:31.636Z,80.90
2022-11-01T20:04:05.798Z,80.14
2022-11-01T20:06:42.470Z,80.00
2022-11-01T20:09:19.988Z,79.60
2022-11-01T20:11:54.704Z,80.45
2022-11-01T20:14:27.306Z,80.26
2022-11-01T20:17:00.253Z,80.38
2022-11-01T20:19:33.737Z,80.59
2022-11-01T20:22:06.046Z,80.24
2022-11-01T20:24:39.166Z,80.08
2022-11-01T20:27:12.752Z,80.33
2022-11-01T20:29:45.001Z,80.38
2022-11-01T20:32:17.065Z,80.10
2022-11-01T20:34:49.517Z,80.05
2022-11-01T20:37:28.564Z,81.06
2022-11-01T20:40:01.360Z,81.46
2022-11-01T20:42:35.447Z,81.75
2022-11-01T20:45:08.639Z,81.81
2022-11-01T20:47:46.118Z,81.48
2022-11-01T20:50:20.448Z,81.84
2022-11-01T20:52:52.550Z,81.96
2022-11-01T20:55:25.168Z,81.27
2022-11-01T20:57:58.846Z,81.31
2022-11-01T21:00:31.480Z,80.82
2022-11-01T21:03:08.020Z,80.65
2022-11-01T21:05:40.170Z,80.82
2022-11-01T21:08:20.200Z,80.78
2022-11-01T21:11:01.070Z,80.36
2022-11-01T21:13:38.257Z,80.35
2022-11-01T21:16:20.174Z,80.96
2022-11-01T21:18:54.256Z,80.32
2022-11-01T21:21:46.577Z,80.24
2022-11-01T21:24:37.486Z,80.76
2022-11-01T21:30:17.579Z,80.74
2022-11-01T21:32:50.588Z,80.71
2022-11-01T21:35:42.405Z,80.45
2022-11-01T21:38:39.214Z,80.34
2022-11-01T21:41:36.707Z,79.75
2022-11-01T21:44:27.263Z,79.56
2022-11-01T21:47:13.491Z,80.18
2022-11-01T21:49:46.185Z,79.90
2022-11-01T21:52:18.814Z,79.08
2022-11-01T21:54:51.923Z,79.58
2022-11-01T21:57:24.483Z,79.63
2022-11-01T21:59:57.574Z,80.43
2022-11-01T22:02:31.563Z,80.15
2022-11-01T22:05:04.495Z,80.75
2022-11-01T22:07:36.754Z,80.55
2022-11-01T22:10:10.136Z,81.35
2022-11-01T22:12:42.627Z,81.79
2022-11-01T22:15:15.721Z,82.37
2022-11-01T22:17:49.547Z,82.27
2022-11-01T22:20:22.099Z,81.74
2022-11-01T22:22:54.245Z,81.60
2022-11-01T22:25:26.725Z,81.71
2022-11-01T22:27:59.407Z,81.47
2022-11-01T22:30:31.623Z,81.49
2022-11-01T22:33:07.352Z,82.06
2022-11-01T22:35:39.942Z,82.13
2022-11-01T22:38:19.793Z,82.27
2022-11-01T22:43:32.134Z,81.31
2022-11-01T22:46:05.936Z,81.58
2022-11-01T22:48:40.053Z,82.14
2022-11-01T22:51:20.145Z,81.92
2022-11-01T22:53:54.580Z,81.28
2022-11-01T22:56:27.204Z,81.08
2022-11-01T22:58:59.923Z,81.21
2022-11-01T23:01:34.620Z,81.18
2022-11-01T23:04:22.993Z,81.43
2022-11-01T23:06:55.457Z,81.62
2022-11-01T23:09:28.002Z,81.45
2022-11-01T23:12:38.354Z,81.32
2022-11-01T23:15:22.195Z,81.27
2022-11-01T23:17:54.932Z,81.80
2022-11-01T23:20:28.678Z,81.59
2022-11-01T23:23:02.717Z,81.63
2022-11-01T23:25:35.320Z,81.60
2022-11-01T23:28:08.127Z,81.79
2022-11-01T23:30:40.699Z,81.80
2022-11-01T23:33:16.099Z,82.40
2022-11-01T23:35:55.879Z,82.38
2022-11-01T23:38:36.416Z,82.96
2022-11-01T23:41:09.271Z,82.95
2022-11-01T23:43:43.956Z,82.74
2022-11-01T23:46:16.736Z,83.32
2022-11-01T23:48:49.873Z,83.28
2022-11-01T23:51:24.763Z,82.66
2022-11-01T23:54:01.509Z,82.41
2022-11-01T23:56:34.712Z,82.80
2022-11-01T23:59:08.433Z,83.00
